Key West, FL NWLON current weather conditions

sailwx.info

Wind from 001 at 6 knots gusting 12

Last reported at 2018-Dec-12 02:48 UTC.
Time now 2018-Dec-12 03:44 UTC

Location: N 24°33' W 081°48'.
View on Google Maps.

See reports from other nearby stations

  
Tides and Currents Weather Stations Pressure Air Temp Water Temp Dewpoint Dewpoint Depression Visibility Wind Speed Wind Dir Waves Ship Positions
date/time (UTC)wind fromknots sea level pressurealtimeterstation pressurevisibilityair tempwater tempwave heightnotes
2018-Dec-12 03:12 017 6 gusting 11
2018-Dec-12 03:00 020 7 gusting 10
2018-Dec-12 02:54 020 8 gusting 13
2018-Dec-12 02:48 001 6 gusting 12
2018-Dec-12 02:42 018 5 gusting 10
2018-Dec-12 02:36 025 6 gusting 13
2018-Dec-12 02:30 005 9 gusting 13
2018-Dec-12 02:24 354 9 gusting 13
2018-Dec-12 02:18 001 8 gusting 14
2018-Dec-12 02:12 351 11 gusting 13
2018-Dec-12 02:06 348 13 gusting 15
2018-Dec-12 02:00 001 7 gusting 14
2018-Dec-12 01:54 347 13 gusting 16
2018-Dec-12 01:48 354 11 gusting 14
2018-Dec-12 01:42 354 6 gusting 12
2018-Dec-12 01:36 003 9 gusting 14
2018-Dec-12 01:30 001 9 gusting 13
2018-Dec-12 01:24 357 8 gusting 14
2018-Dec-12 01:18 349 12 gusting 16
2018-Dec-12 01:12 352 10 gusting 17
2018-Dec-12 01:06 341 15 gusting 18
2018-Dec-12 01:00 347 13 gusting 16
2018-Dec-12 00:54 349 11 gusting 15
2018-Dec-12 00:48 346 10 gusting 13
2018-Dec-12 00:42 349 12 gusting 13
2018-Dec-12 00:36 348 12 gusting 15
2018-Dec-12 00:30 353 7 gusting 15
2018-Dec-12 00:24 347 13 gusting 19
2018-Dec-12 00:18 345 13 gusting 16
2018-Dec-12 00:12 349 10 gusting 13
2018-Dec-12 00:06 349 8 gusting 16
2018-Dec-11 23:48 342 15 gusting 18
2018-Dec-11 23:42 343 13 gusting 17
2018-Dec-11 23:36 341 15 gusting 18
2018-Dec-11 23:30 337 13 gusting 15
2018-Dec-11 23:24 344 15 gusting 17
2018-Dec-11 23:18 349 12 gusting 15
2018-Dec-11 23:12 346 13 gusting 17
2018-Dec-11 23:06 346 12 gusting 17
2018-Dec-11 23:00 353 9 gusting 16
2018-Dec-11 22:54 348 15 gusting 18
2018-Dec-11 18:30 353 11 gusting 16
2018-Dec-11 18:24 344 12 gusting 15
2018-Dec-11 18:18 349 10 gusting 14
2018-Dec-11 18:12 355 7 gusting 13
2018-Dec-11 18:06 357 10 gusting 14
2018-Dec-11 18:00 356 11 gusting 16
2018-Dec-11 17:54 355 10 gusting 16
2018-Dec-11 17:48 007 11 gusting 16
2018-Dec-11 17:42 003 13 gusting 17
2018-Dec-11 17:36 002 9 gusting 16
2018-Dec-11 17:30 015 12 gusting 18
2018-Dec-11 17:24 018 9 gusting 17
2018-Dec-11 17:18 353 12 gusting 17
2018-Dec-11 17:12 008 10 gusting 15
2018-Dec-11 17:06 009 6 gusting 15
2018-Dec-11 17:00 024 8 gusting 14
2018-Dec-11 16:54 016 10 gusting 16
2018-Dec-11 16:48 017 8 gusting 15
2018-Dec-11 16:42 358 10 gusting 15
2018-Dec-11 16:36 028 12 gusting 17
2018-Dec-11 16:30 032 8 gusting 14
2018-Dec-11 16:24 020 11 gusting 17
2018-Dec-11 16:18 018 13 gusting 19
2018-Dec-11 16:12 016 10 gusting 18
2018-Dec-11 16:06 018 12 gusting 19
2018-Dec-11 16:00 014 13 gusting 19
2018-Dec-11 15:54 022 13 gusting 18
2018-Dec-11 15:48 010 10 gusting 17
2018-Dec-11 15:42 010 9 gusting 17
2018-Dec-11 15:36 024 12 gusting 17
2018-Dec-11 15:30 027 10 gusting 15
2018-Dec-11 15:24 026 11 gusting 18
2018-Dec-11 15:18 019 13 gusting 19
2018-Dec-11 15:12 023 10 gusting 13
2018-Dec-11 15:06 025 8 gusting 15
2018-Dec-11 15:00 026 9 gusting 14
2018-Dec-11 14:54 015 6 gusting 16
2018-Dec-11 14:48 016 10 gusting 17
2018-Dec-11 14:42 011 10 gusting 23
2018-Dec-11 14:36 344 9 gusting 18
2018-Dec-11 14:30 347 11 gusting 14
2018-Dec-11 14:24 349 12 gusting 14
2018-Dec-11 14:18 352 10 gusting 14
2018-Dec-11 14:12 349 11 gusting 16
2018-Dec-11 14:06 350 15 gusting 19
2018-Dec-11 14:00 349 14 gusting 18
2018-Dec-11 13:54 347 13 gusting 14
2018-Dec-11 13:48 348 11 gusting 13
2018-Dec-11 13:42 348 9 gusting 13
2018-Dec-11 13:36 346 11 gusting 13
2018-Dec-11 13:30 344 10 gusting 14
2018-Dec-11 13:24 349 11 gusting 13
2018-Dec-11 13:18 345 9 gusting 13
2018-Dec-11 13:12 009 5 gusting 7
2018-Dec-11 13:06 033 5 gusting 7
2018-Dec-11 13:00 032 6 gusting 9
2018-Dec-11 12:54 026 6 gusting 9
2018-Dec-11 12:48 018 5 gusting 11
2018-Dec-11 12:42 018 6 gusting 8
2018-Dec-11 12:36 031 6 gusting 10
2018-Dec-11 12:30 029 6 gusting 11
2018-Dec-11 12:24 026 6 gusting 13
2018-Dec-11 12:18 028 8 gusting 13
2018-Dec-11 12:12 030 7 gusting 13
2018-Dec-11 12:06 019 9 gusting 13
2018-Dec-11 12:00 028 9 gusting 13
2018-Dec-11 11:54 008 9 gusting 15
2018-Dec-11 11:48 004 11 gusting 20
2018-Dec-11 11:42 358 13 gusting 19
2018-Dec-11 11:36 351 13 gusting 18
2018-Dec-11 11:30 350 14 gusting 19
2018-Dec-11 11:24 350 13 gusting 19
2018-Dec-11 11:18 348 17 gusting 23
2018-Dec-11 11:12 340 21 gusting 26
2018-Dec-11 11:06 344 13 gusting 19
2018-Dec-11 11:00 340 18 gusting 21
2018-Dec-11 10:54 320 17 gusting 19
2018-Dec-11 10:48 326 16 gusting 19
2018-Dec-11 10:42 322 16 gusting 19
2018-Dec-11 10:36 327 16 gusting 21
2018-Dec-11 10:30 333 11 gusting 14
2018-Dec-11 10:24 347 11 gusting 13
2018-Dec-11 10:18 343 9 gusting 13
2018-Dec-11 10:12 346 13 gusting 15
2018-Dec-11 10:06 354 9 gusting 13
2018-Dec-11 10:00 350 10 gusting 15
2018-Dec-11 09:54 344 13 gusting 15
2018-Dec-11 09:48 346 11 gusting 13
2018-Dec-11 09:42 344 12 gusting 15
2018-Dec-11 09:36 339 10 gusting 13
2018-Dec-11 09:30 336 13 gusting 18
2018-Dec-11 09:24 333 12 gusting 14
2018-Dec-11 09:18 344 10 gusting 12
2018-Dec-11 09:12 344 11 gusting 14
2018-Dec-11 09:06 326 13 gusting 15
2018-Dec-11 09:00 333 12 gusting 15
2018-Dec-11 08:54 340 13 gusting 15
2018-Dec-11 08:48 321 12 gusting 15
2018-Dec-11 08:42 343 11 gusting 13
2018-Dec-11 08:36 342 12 gusting 14
2018-Dec-11 08:30 355 9 gusting 15
2018-Dec-11 08:24 327 12 gusting 19
2018-Dec-11 08:18 319 16 gusting 19
2018-Dec-11 08:12 314 14 gusting 18
2018-Dec-11 08:06 311 12 gusting 14
2018-Dec-11 08:00 325 7 gusting 11
2018-Dec-11 07:54 342 9 gusting 12
2018-Dec-11 07:48 340 8 gusting 13
2018-Dec-11 07:42 333 12 gusting 13
2018-Dec-11 07:36 341 11 gusting 13
2018-Dec-11 07:30 341 11 gusting 14
2018-Dec-11 07:24 325 12 gusting 16
2018-Dec-11 07:18 333 13 gusting 16
2018-Dec-11 07:12 340 13 gusting 16
2018-Dec-11 07:06 331 16 gusting 19
2018-Dec-11 07:00 337 14 gusting 16
2018-Dec-11 06:54 337 14 gusting 17
2018-Dec-11 06:48 341 14 gusting 17
2018-Dec-11 06:42 331 14 gusting 17
2018-Dec-11 06:36 325 15 gusting 18
2018-Dec-11 06:30 337 13 gusting 17
2018-Dec-11 06:24 334 13 gusting 15
2018-Dec-11 06:18 332 12 gusting 15
2018-Dec-11 06:12 339 13 gusting 18
2018-Dec-11 06:06 332 13 gusting 16
2018-Dec-11 06:00 345 13 gusting 14
2018-Dec-11 05:54 349 10 gusting 13
2018-Dec-11 05:48 340 11 gusting 13
2018-Dec-11 05:42 338 12 gusting 14
2018-Dec-11 05:36 341 11 gusting 14
2018-Dec-11 05:30 335 12 gusting 14
2018-Dec-11 05:24 337 10 gusting 13
2018-Dec-11 05:18 348 8 gusting 12
2018-Dec-11 05:12 335 11 gusting 14
2018-Dec-11 05:06 337 10 gusting 13
2018-Dec-11 05:00 338 10 gusting 13
2018-Dec-11 04:54 344 7 gusting 13
2018-Dec-11 04:48 348 9 gusting 12
2018-Dec-11 04:42 001 8 gusting 12
2018-Dec-11 04:36 342 9 gusting 13
2018-Dec-11 04:30 349 9 gusting 13
2018-Dec-11 04:24 339 10 gusting 13
2018-Dec-11 04:18 344 10 gusting 12
2018-Dec-11 04:12 347 9 gusting 14
2018-Dec-11 04:06 344 11 gusting 15
2018-Dec-11 04:00 352 9 gusting 13
2018-Dec-11 03:54 350 10 gusting 12
2018-Dec-11 03:48 348 13 gusting 17
2018-Dec-11 03:42 349 13 gusting 17
2018-Dec-11 03:36 349 13 gusting 15
2018-Dec-11 03:30 348 13 gusting 16
2018-Dec-11 03:24 345 13 gusting 15
2018-Dec-11 03:18 348 12 gusting 15
2018-Dec-11 03:12 334 12 gusting 14
2018-Dec-11 03:06 344 12 gusting 13
2018-Dec-11 03:00 343 13 gusting 16
2018-Dec-11 02:54 335 13 gusting 15
2018-Dec-11 02:48 325 15 gusting 18
2018-Dec-11 02:42 324 14 gusting 16
2018-Dec-11 02:36 324 13 gusting 16
2018-Dec-11 02:30 312 15 gusting 18
2018-Dec-11 02:24 317 13 gusting 16
2018-Dec-11 02:18 321 14 gusting 17
2018-Dec-11 02:12 324 13 gusting 16
2018-Dec-11 02:06 319 13 gusting 18
2018-Dec-11 02:00 321 16 gusting 19
2018-Dec-11 01:54 319 16 gusting 19
2018-Dec-11 01:48 322 17 gusting 19
2018-Dec-11 01:42 322 15 gusting 19
2018-Dec-11 01:36 317 14 gusting 18
2018-Dec-11 01:30 317 16 gusting 19
2018-Dec-11 01:24 322 15 gusting 19
2018-Dec-11 01:18 315 15 gusting 18
2018-Dec-11 01:12 325 15 gusting 18
2018-Dec-11 01:06 321 16 gusting 19
2018-Dec-11 01:00 324 13 gusting 16
2018-Dec-11 00:54 325 13 gusting 17
2018-Dec-11 00:48 324 13 gusting 18
2018-Dec-11 00:42 320 13 gusting 18
2018-Dec-11 00:36 320 16 gusting 19
2018-Dec-11 00:30 326 14 gusting 19
2018-Dec-11 00:24 322 14 gusting 17
2018-Dec-11 00:18 325 15 gusting 19
2018-Dec-11 00:12 316 13 gusting 17
2018-Dec-11 00:06 328 15 gusting 17
2018-Dec-10 23:48 322 14 gusting 17
2018-Dec-10 23:42 327 13 gusting 16
2018-Dec-10 23:36 317 14 gusting 17
2018-Dec-10 23:30 316 13 gusting 18
2018-Dec-10 23:24 326 13 gusting 17
2018-Dec-10 23:18 323 14 gusting 16
2018-Dec-10 23:12 317 14 gusting 17
2018-Dec-10 23:06 322 13 gusting 16
2018-Dec-10 23:00 320 15 gusting 17
2018-Dec-10 22:54 315 14 gusting 16
2018-Dec-10 22:48 322 13 gusting 18
2018-Dec-10 22:42 323 15 gusting 19
2018-Dec-10 22:36 316 15 gusting 18
2018-Dec-10 22:30 317 15 gusting 18
2018-Dec-10 22:24 320 15 gusting 18
2018-Dec-10 22:18 319 15 gusting 17
2018-Dec-10 22:12 312 15 gusting 19
2018-Dec-10 22:06 333 16 gusting 19
2018-Dec-10 22:00 330 11 gusting 18
2018-Dec-10 21:54 331 12 gusting 18
2018-Dec-10 21:48 324 13 gusting 16
2018-Dec-10 21:12 306 12 gusting 16
2018-Dec-10 20:24 316 15 gusting 17
2018-Dec-10 20:18 305 14 gusting 16
2018-Dec-10 20:06 305 14 gusting 18
2018-Dec-10 19:54 311 14 gusting 18
2018-Dec-10 19:48 313 16 gusting 18
2018-Dec-10 19:42 317 17 gusting 19
2018-Dec-10 19:36 314 14 gusting 18
2018-Dec-10 19:30 312 16 gusting 19
2018-Dec-10 19:24 314 14 gusting 18
2018-Dec-10 19:18 314 15 gusting 19
2018-Dec-10 19:12 315 17 gusting 19
2018-Dec-10 19:06 305 16 gusting 19
2018-Dec-10 19:00 321 17 gusting 19
2018-Dec-10 18:54 320 16 gusting 19
2018-Dec-10 18:48 321 16 gusting 19
2018-Dec-10 18:42 315 17 gusting 19
2018-Dec-10 18:36 321 17 gusting 19
2018-Dec-10 18:30 322 14 gusting 21
2018-Dec-10 18:24 320 15 gusting 19
2018-Dec-10 18:18 323 16 gusting 20
2018-Dec-10 18:12 322 16 gusting 19
2018-Dec-10 18:06 320 15 gusting 19
2018-Dec-10 18:00 311 18 gusting 19
2018-Dec-10 17:54 310 16 gusting 18
2018-Dec-10 17:48 312 16 gusting 19
2018-Dec-10 17:42 317 14 gusting 19
2018-Dec-10 17:36 317 15 gusting 18
2018-Dec-10 17:30 317 16 gusting 19
2018-Dec-10 17:24 319 15 gusting 19
2018-Dec-10 17:18 304 16 gusting 19
2018-Dec-10 17:12 322 13 gusting 19
2018-Dec-10 17:06 320 14 gusting 19
2018-Dec-10 17:00 313 16 gusting 19
2018-Dec-10 16:54 325 14 gusting 19
2018-Dec-10 16:48 316 18 gusting 21
2018-Dec-10 16:42 319 16 gusting 19
2018-Dec-10 16:36 323 16 gusting 19
2018-Dec-10 16:30 322 13 gusting 19
2018-Dec-10 16:24 329 13 gusting 19
2018-Dec-10 16:18 327 11 gusting 15
2018-Dec-10 16:12 318 14 gusting 16
2018-Dec-10 16:06 309 15 gusting 17
2018-Dec-10 16:00 318 14 gusting 16
2018-Dec-10 15:54 318 14 gusting 18
2018-Dec-10 15:48 316 12 gusting 17
2018-Dec-10 15:42 313 13 gusting 17
2018-Dec-10 15:36 319 16 gusting 20
2018-Dec-10 15:30 335 13 gusting 19
2018-Dec-10 15:24 327 13 gusting 20
2018-Dec-10 15:18 336 13 gusting 16
2018-Dec-10 15:12 350 12 gusting 16
2018-Dec-10 15:06 333 13 gusting 19
2018-Dec-10 15:00 315 18 gusting 21
2018-Dec-10 14:54 316 19 gusting 23
2018-Dec-10 14:48 307 16 gusting 20
2018-Dec-10 14:42 309 13 gusting 15
2018-Dec-10 14:36 320 13 gusting 15
2018-Dec-10 14:30 343 8 gusting 12
2018-Dec-10 14:24 331 9 gusting 14
2018-Dec-10 14:18 314 13 gusting 19
2018-Dec-10 14:12 325 11 gusting 13
2018-Dec-10 14:06 336 11 gusting 15
2018-Dec-10 14:00 333 8 gusting 13
2018-Dec-10 13:54 332 10 gusting 13
2018-Dec-10 13:48 352 9 gusting 15
2018-Dec-10 13:42 328 13 gusting 19
2018-Dec-10 13:36 326 13 gusting 19
2018-Dec-10 13:30 325 10 gusting 17
2018-Dec-10 13:24 323 14 gusting 18
2018-Dec-10 13:18 329 11 gusting 15
2018-Dec-10 13:12 348 8 gusting 12
2018-Dec-10 13:06 357 8 gusting 12
2018-Dec-10 13:00 351 9 gusting 13
2018-Dec-10 12:54 350 10 gusting 14
2018-Dec-10 12:48 353 11 gusting 14
2018-Dec-10 12:42 331 11 gusting 15
2018-Dec-10 12:36 316 16 gusting 18
2018-Dec-10 12:30 312 14 gusting 18
2018-Dec-10 12:24 312 15 gusting 17
2018-Dec-10 12:18 315 13 gusting 16
2018-Dec-10 12:12 316 13 gusting 15
2018-Dec-10 12:06 310 11 gusting 16
2018-Dec-10 12:00 315 13 gusting 15
2018-Dec-10 11:54 316 14 gusting 17
2018-Dec-10 11:48 324 11 gusting 15
2018-Dec-10 11:42 318 12 gusting 19
2018-Dec-10 11:36 329 13 gusting 22
2018-Dec-10 11:30 310 16 gusting 19
2018-Dec-10 11:24 305 13 gusting 16
2018-Dec-10 11:18 307 13 gusting 15
2018-Dec-10 11:12 309 13 gusting 16
2018-Dec-10 11:06 308 14 gusting 16
2018-Dec-10 11:00 303 13 gusting 17
2018-Dec-10 10:54 302 16 gusting 18
2018-Dec-10 10:48 307 12 gusting 14
2018-Dec-10 10:42 310 10 gusting 13
2018-Dec-10 10:36 308 10 gusting 12
2018-Dec-10 10:30 306 11 gusting 13
2018-Dec-10 10:24 302 11 gusting 14
2018-Dec-10 10:18 304 13 gusting 14
2018-Dec-10 10:12 308 13 gusting 16
2018-Dec-10 10:06 302 13 gusting 16
2018-Dec-10 10:00 309 13 gusting 15
2018-Dec-10 09:54 304 15 gusting 17
2018-Dec-10 09:48 300 15 gusting 17
2018-Dec-10 09:42 300 13 gusting 15
2018-Dec-10 09:36 301 13 gusting 16
2018-Dec-10 09:30 302 15 gusting 18
2018-Dec-10 09:24 298 13 gusting 17
2018-Dec-10 09:18 303 13 gusting 16
2018-Dec-10 09:12 303 13 gusting 15
2018-Dec-10 09:06 303 13 gusting 16
2018-Dec-10 09:00 306 14 gusting 16
2018-Dec-10 08:54 304 13 gusting 16
2018-Dec-10 08:48 302 13 gusting 16
2018-Dec-10 08:42 304 13 gusting 16
2018-Dec-10 08:36 306 13 gusting 14
2018-Dec-10 08:30 305 13 gusting 16
2018-Dec-10 08:24 305 13 gusting 16
2018-Dec-10 08:18 303 13 gusting 16
2018-Dec-10 08:12 304 13 gusting 16
2018-Dec-10 08:06 302 12 gusting 15
2018-Dec-10 08:00 308 13 gusting 13
2018-Dec-10 07:54 307 12 gusting 13
2018-Dec-10 07:48 303 10 gusting 13
2018-Dec-10 07:42 311 12 gusting 13
2018-Dec-10 07:36 309 10 gusting 13
2018-Dec-10 07:30 310 12 gusting 16
2018-Dec-10 07:24 309 13 gusting 16
2018-Dec-10 07:18 304 14 gusting 16
2018-Dec-10 07:12 304 13 gusting 16
2018-Dec-10 07:06 306 13 gusting 15
2018-Dec-10 07:00 305 13 gusting 15
2018-Dec-10 06:54 304 13 gusting 18
2018-Dec-10 06:48 288 14 gusting 17
2018-Dec-10 06:42 278 13 gusting 16
2018-Dec-10 06:36 270 13 gusting 15
2018-Dec-10 06:30 268 9 gusting 13
2018-Dec-10 06:24 270 12 gusting 13
2018-Dec-10 06:18 266 9 gusting 11
2018-Dec-10 06:12 264 10 gusting 13
2018-Dec-10 06:06 260 10 gusting 12
2018-Dec-10 06:00 257 8 gusting 11
2018-Dec-10 05:54 265 11 gusting 12
2018-Dec-10 05:48 261 8 gusting 10
2018-Dec-10 05:42 263 9 gusting 12
2018-Dec-10 05:36 269 12 gusting 13
2018-Dec-10 05:30 265 10 gusting 11
2018-Dec-10 05:24 260 9 gusting 11
2018-Dec-10 05:18 262 9 gusting 12
2018-Dec-10 05:12 262 8 gusting 12
2018-Dec-10 05:06 264 10 gusting 12
2018-Dec-10 05:00 264 10 gusting 12
2018-Dec-10 04:54 258 9 gusting 11
2018-Dec-10 04:48 259 9 gusting 11
2018-Dec-10 04:42 263 9 gusting 11
2018-Dec-10 04:36 258 8 gusting 11
2018-Dec-10 04:30 267 9 gusting 12
2018-Dec-10 04:24 268 11 gusting 12
2018-Dec-10 04:18 267 9 gusting 11
2018-Dec-10 04:12 265 8 gusting 10
2018-Dec-10 04:06 263 9 gusting 11
2018-Dec-10 04:00 264 10 gusting 11
2018-Dec-10 03:54 256 10 gusting 11
2018-Dec-10 03:48 257 9 gusting 12
2018-Dec-10 03:42 260 9 gusting 12
2018-Dec-10 03:36 263 11 gusting 12
2018-Dec-10 03:30 258 10 gusting 13
2018-Dec-10 03:24 265 10 gusting 12
2018-Dec-10 03:18 259 10 gusting 13
2018-Dec-10 03:12 264 8 gusting 11
2018-Dec-10 03:06 259 8 gusting 11
2018-Dec-10 03:00 260 9 gusting 13